Time;durP1;ratioP1;P1;durP2;ratioP2;P2;SDS_P1;SDS_P2;PMS_P1;PMS_P2;Temp;Humidity;BMP_temperature;BMP_pressure;BME280_temperature;BME280_humidity;BME280_pressure;Samples;Min_cycle;Max_cycle;Signal;HPM_P1;HPM_P2
2023/09/02 00:00:09;;;;;;;14.83;6.83;;;15.40;99.90;;;;;;4399348;28;655531;-68
2023/09/02 00:02:57;;;;;;;13.60;6.70;;;15.40;99.90;;;;;;4410087;28;655664;-68
2023/09/02 00:05:44;;;;;;;13.07;7.13;;;15.40;99.90;;;;;;4394099;28;656210;-68
2023/09/02 00:08:31;;;;;;;11.60;6.60;;;15.40;99.90;;;;;;4404279;28;655670;-68
2023/09/02 00:11:20;;;;;;;14.37;6.93;;;15.40;99.90;;;;;;4392888;28;655491;-68
2023/09/02 00:14:07;;;;;;;15.17;7.13;;;15.40;99.90;;;;;;4404235;28;656141;-67
2023/09/02 00:16:55;;;;;;;15.07;6.70;;;15.40;99.90;;;;;;4418209;28;656543;-68
2023/09/02 00:19:43;;;;;;;17.07;7.37;;;15.40;99.90;;;;;;4404589;28;655767;-67
2023/09/02 00:22:31;;;;;;;14.47;7.63;;;15.40;99.90;;;;;;4419616;28;656096;-68
2023/09/02 00:25:18;;;;;;;14.77;7.00;;;15.40;99.90;;;;;;4395505;28;655597;-68
2023/09/02 00:28:06;;;;;;;12.17;6.70;;;15.40;99.90;;;;;;4409213;28;655628;-68
2023/09/02 00:30:54;;;;;;;15.07;7.30;;;15.40;99.90;;;;;;4385195;28;655977;-68
2023/09/02 00:33:41;;;;;;;14.63;7.00;;;15.40;99.90;;;;;;4412925;28;654920;-68
2023/09/02 00:36:30;;;;;;;15.07;7.17;;;15.40;99.90;;;;;;4394335;28;655362;-68
2023/09/02 00:39:18;;;;;;;14.13;7.30;;;15.40;99.90;;;;;;4396546;28;655465;-68
2023/09/02 00:42:06;;;;;;;17.63;7.70;;;15.40;99.90;;;;;;4415042;28;656896;-69
2023/09/02 00:44:55;;;;;;;17.80;8.18;;;15.40;99.90;;;;;;4398073;28;656051;-69
2023/09/02 00:47:43;;;;;;;16.07;7.27;;;15.40;99.90;;;;;;4398352;28;656400;-69
2023/09/02 00:50:30;;;;;;;14.30;7.63;;;15.40;99.90;;;;;;4404535;28;656952;-69
2023/09/02 00:53:18;;;;;;;15.27;7.93;;;15.50;99.90;;;;;;4406227;28;655313;-69
2023/09/02 00:56:05;;;;;;;11.43;7.50;;;15.40;99.90;;;;;;4414517;28;655514;-69
2023/09/02 00:58:53;;;;;;;13.67;7.80;;;15.50;99.90;;;;;;4388325;28;655786;-69
2023/09/02 01:01:43;;;;;;;14.53;7.83;;;15.40;99.90;;;;;;4416888;28;656658;-69
2023/09/02 01:04:30;;;;;;;14.97;8.10;;;15.40;99.90;;;;;;4398132;28;656042;-69
2023/09/02 01:07:18;;;;;;;10.33;7.30;;;15.50;99.90;;;;;;4406947;28;656022;-69
2023/09/02 01:10:06;;;;;;;12.43;8.00;;;15.50;99.90;;;;;;4407733;28;655913;-69
2023/09/02 01:12:54;;;;;;;13.93;8.13;;;15.50;99.90;;;;;;4394176;28;656446;-69
2023/09/02 01:15:41;;;;;;;15.20;8.33;;;15.50;99.90;;;;;;4412699;28;655143;-70
2023/09/02 01:18:30;;;;;;;13.07;7.33;;;15.50;99.90;;;;;;4388732;28;656023;-69
2023/09/02 01:21:40;;;;;;;14.90;8.13;;;15.50;99.90;;;;;;4411135;28;655432;-69
2023/09/02 01:24:56;;;;;;;12.93;8.23;;;15.50;99.90;;;;;;4374058;28;655609;-69
2023/09/02 01:27:48;;;;;;;15.23;7.33;;;15.50;99.90;;;;;;4392179;28;656190;-69
2023/09/02 01:30:36;;;;;;;11.20;7.13;;;15.50;99.90;;;;;;4399782;28;655977;-69
2023/09/02 01:33:23;;;;;;;12.30;7.40;;;15.50;99.90;;;;;;4388973;28;655820;-69
2023/09/02 01:36:12;;;;;;;11.80;7.67;;;15.50;99.90;;;;;;4411695;28;656185;-69
2023/09/02 01:39:00;;;;;;;14.63;8.27;;;15.50;99.90;;;;;;4395342;28;657278;-69
2023/09/02 01:41:47;;;;;;;11.33;7.50;;;15.60;99.90;;;;;;4415204;28;655572;-69
2023/09/02 01:44:36;;;;;;;13.90;7.47;;;15.60;99.90;;;;;;4409961;28;656673;-69
2023/09/02 01:47:23;;;;;;;10.40;7.33;;;15.60;99.90;;;;;;4392310;28;655380;-70
2023/09/02 01:50:11;;;;;;;13.27;7.67;;;15.60;99.90;;;;;;4412574;28;655508;-70
2023/09/02 01:52:58;;;;;;;12.40;6.87;;;15.60;99.90;;;;;;4396032;28;655332;-69
2023/09/02 01:55:46;;;;;;;14.50;7.70;;;15.60;99.90;;;;;;4420012;28;656475;-70
2023/09/02 01:58:33;;;;;;;17.20;7.77;;;15.60;99.90;;;;;;4389191;28;656272;-69
2023/09/02 02:01:21;;;;;;;18.83;7.57;;;15.60;99.90;;;;;;4414889;28;655832;-70
2023/09/02 02:04:11;;;;;;;13.47;6.97;;;15.50;99.90;;;;;;4381344;28;655263;-69
2023/09/02 02:07:01;;;;;;;39.80;8.00;;;15.50;99.90;;;;;;4398716;28;656045;-68
2023/09/02 02:09:49;;;;;;;10.47;7.30;;;15.50;99.90;;;;;;4395697;28;655462;-68
2023/09/02 02:12:38;;;;;;;15.47;7.93;;;15.50;99.90;;;;;;4404351;28;655305;-69
2023/09/02 02:15:25;;;;;;;11.50;6.83;;;15.60;99.90;;;;;;4391136;28;656408;-68
2023/09/02 02:18:14;;;;;;;30.63;7.80;;;15.50;99.90;;;;;;4396674;28;655572;-69
2023/09/02 02:21:02;;;;;;;10.20;6.97;;;15.60;99.90;;;;;;4415060;28;655286;-69
2023/09/02 02:23:49;;;;;;;10.77;7.00;;;15.50;99.90;;;;;;4400995;28;655419;-69
2023/09/02 02:26:37;;;;;;;11.87;6.90;;;15.60;99.90;;;;;;4415218;28;655286;-69
2023/09/02 02:29:24;;;;;;;7.17;5.23;;;15.50;99.90;;;;;;4397644;28;655815;-69
2023/09/02 02:32:11;;;;;;;6.10;4.23;;;15.40;99.90;;;;;;4417485;28;654896;-69
2023/09/02 02:35:01;;;;;;;5.97;4.47;;;15.50;99.90;;;;;;4392013;28;654400;-69
2023/09/02 02:37:48;;;;;;;5.30;4.40;;;15.50;99.90;;;;;;4393532;28;654655;-69
2023/09/02 02:40:35;;;;;;;4.33;3.90;;;15.40;99.90;;;;;;4425747;28;654734;-69
2023/09/02 02:43:26;;;;;;;6.03;4.53;;;15.40;99.90;;;;;;4396565;28;655346;-69
2023/09/02 02:46:13;;;;;;;4.70;3.97;;;15.50;99.90;;;;;;4395567;28;654667;-69
2023/09/02 02:49:00;;;;;;;4.57;4.07;;;15.50;99.90;;;;;;4414553;28;656000;-70
2023/09/02 02:51:49;;;;;;;7.67;4.37;;;15.60;99.90;;;;;;4398519;28;654075;-69
2023/09/02 02:54:38;;;;;;;5.37;4.43;;;15.60;99.90;;;;;;4404163;28;654730;-69
2023/09/02 02:57:25;;;;;;;7.13;4.87;;;15.60;99.90;;;;;;4395030;28;654443;-69
2023/09/02 03:00:13;;;;;;;6.10;4.80;;;15.70;99.90;;;;;;4401778;28;654412;-69
2023/09/02 03:03:03;;;;;;;7.60;5.47;;;15.60;99.90;;;;;;4416857;28;654550;-69
2023/09/02 03:05:50;;;;;;;7.70;4.50;;;15.60;99.90;;;;;;4394006;28;655250;-69
2023/09/02 03:08:39;;;;;;;11.63;5.33;;;15.70;99.90;;;;;;4406697;28;654588;-68
2023/09/02 03:11:26;;;;;;;6.63;4.50;;;15.70;99.90;;;;;;4423337;28;655542;-68
2023/09/02 03:14:13;;;;;;;7.53;4.47;;;15.80;99.90;;;;;;4394777;28;654733;-69
2023/09/02 03:17:00;;;;;;;7.23;5.03;;;15.70;99.90;;;;;;4425647;28;655328;-68
2023/09/02 03:19:48;;;;;;;9.33;5.53;;;15.70;99.90;;;;;;4395119;28;654334;-69
2023/09/02 03:22:35;;;;;;;10.73;5.43;;;15.80;99.90;;;;;;4416555;28;655742;-69
2023/09/02 03:25:27;;;;;;;14.37;5.20;;;15.80;99.90;;;;;;4408696;28;656175;-69
2023/09/02 03:28:14;;;;;;;7.83;5.17;;;15.80;99.90;;;;;;4396148;28;657334;-68
2023/09/02 03:31:07;;;;;;;8.03;5.47;;;15.70;99.90;;;;;;4414482;28;654889;-69
2023/09/02 03:33:55;;;;;;;8.70;5.67;;;15.80;99.90;;;;;;4364797;28;655497;-69
2023/09/02 03:36:42;;;;;;;11.10;6.33;;;15.60;99.90;;;;;;4415275;28;654374;-69
2023/09/02 03:39:31;;;;;;;9.30;6.03;;;15.60;99.90;;;;;;4419294;28;655937;-70
2023/09/02 03:42:19;;;;;;;8.43;5.73;;;15.60;99.90;;;;;;4389509;28;655445;-71
2023/09/02 03:45:09;;;;;;;8.20;5.83;;;15.60;99.90;;;;;;4405102;28;655076;-70
2023/09/02 03:47:56;;;;;;;8.80;5.60;;;15.60;99.90;;;;;;4396051;28;654395;-70
2023/09/02 03:51:03;;;;;;;9.50;5.10;;;15.70;99.90;;;;;;4392394;28;654461;-69
2023/09/02 03:53:50;;;;;;;7.23;5.50;;;15.70;99.90;;;;;;4390617;28;655146;-69
2023/09/02 03:56:39;;;;;;;8.80;5.47;;;15.80;99.90;;;;;;4397590;28;654333;-70
2023/09/02 03:59:27;;;;;;;9.43;5.60;;;15.80;99.90;;;;;;4406667;28;654877;-69
2023/09/02 04:02:14;;;;;;;7.43;5.10;;;15.80;99.90;;;;;;4397187;28;655005;-69
2023/09/02 04:05:03;;;;;;;8.50;5.40;;;15.80;99.90;;;;;;4420513;28;654255;-70
2023/09/02 04:07:50;;;;;;;6.97;5.60;;;15.80;99.90;;;;;;4390392;28;655506;-69
2023/09/02 04:10:37;;;;;;;6.80;4.97;;;15.80;99.90;;;;;;4401504;28;654429;-69
2023/09/02 04:13:25;;;;;;;11.30;5.13;;;15.80;99.90;;;;;;4416633;28;655955;-70
2023/09/02 04:16:14;;;;;;;7.00;5.10;;;15.80;99.90;;;;;;4396462;28;655780;-70
2023/09/02 04:19:02;;;;;;;7.77;5.40;;;15.80;99.90;;;;;;4424018;28;656078;-70
2023/09/02 04:21:50;;;;;;;7.87;5.40;;;15.80;99.90;;;;;;4399839;28;655624;-69
2023/09/02 04:24:38;;;;;;;8.80;5.40;;;15.70;99.90;;;;;;4417636;28;654651;-69
2023/09/02 04:27:26;;;;;;;6.63;5.07;;;15.80;99.90;;;;;;4410968;28;656064;-70
2023/09/02 04:30:13;;;;;;;8.53;4.90;;;15.80;99.90;;;;;;4397399;28;654807;-70
2023/09/02 04:33:02;;;;;;;5.83;3.97;;;15.80;99.90;;;;;;4415541;28;655604;-69
2023/09/02 04:35:49;;;;;;;5.10;3.57;;;15.80;99.90;;;;;;4403598;28;655404;-70
2023/09/02 04:38:37;;;;;;;4.90;3.90;;;15.80;99.90;;;;;;4414634;28;654952;-69
2023/09/02 04:41:25;;;;;;;4.30;3.53;;;15.80;99.90;;;;;;4396579;28;655371;-70
2023/09/02 04:44:17;;;;;;;4.20;3.40;;;15.80;99.90;;;;;;4414907;28;654762;-70
2023/09/02 04:47:06;;;;;;;7.10;4.33;;;15.90;99.90;;;;;;4394331;28;655445;-70
2023/09/02 04:49:55;;;;;;;7.57;4.80;;;15.80;99.90;;;;;;4391105;28;654798;-69
2023/09/02 04:52:44;;;;;;;7.30;4.07;;;15.80;99.90;;;;;;4403540;28;654657;-69
2023/09/02 04:55:31;;;;;;;7.30;4.40;;;15.80;99.90;;;;;;4421466;28;654288;-69
2023/09/02 04:58:20;;;;;;;5.87;4.30;;;15.70;99.90;;;;;;4389354;28;655036;-69
2023/09/02 05:01:08;;;;;;;8.53;4.43;;;15.70;99.90;;;;;;4404374;28;654662;-69
2023/09/02 05:03:56;;;;;;;7.77;4.43;;;15.70;99.90;;;;;;4415707;28;655816;-70
2023/09/02 05:06:44;;;;;;;5.90;4.27;;;15.70;99.90;;;;;;4404489;28;654443;-69
2023/09/02 05:09:31;;;;;;;7.37;4.90;;;15.70;99.90;;;;;;4409094;28;654295;-69
2023/09/02 05:12:20;;;;;;;5.57;4.37;;;15.70;99.90;;;;;;4384696;28;654823;-69
2023/09/02 05:15:08;;;;;;;6.17;4.43;;;15.80;99.90;;;;;;4422692;28;654570;-69
2023/09/02 05:17:57;;;;;;;8.67;4.97;;;15.80;99.90;;;;;;4396294;28;654901;-69
2023/09/02 05:20:44;;;;;;;6.80;4.40;;;15.90;99.90;;;;;;4394255;28;655364;-69
2023/09/02 05:23:33;;;;;;;5.50;4.40;;;15.90;99.90;;;;;;4425757;28;655011;-70
2023/09/02 05:26:20;;;;;;;5.13;3.87;;;16.00;99.90;;;;;;4386259;28;655604;-69
2023/09/02 05:29:07;;;;;;;10.30;4.37;;;16.10;99.90;;;;;;4400948;28;654327;-68
2023/09/02 05:31:55;;;;;;;6.13;4.40;;;16.20;99.90;;;;;;4413052;28;657485;-69
2023/09/02 05:34:42;;;;;;;4.50;3.50;;;16.30;99.90;;;;;;4403918;28;655218;-68
2023/09/02 05:37:29;;;;;;;6.10;3.97;;;16.20;99.90;;;;;;4388307;28;656376;-69
2023/09/02 05:40:18;;;;;;;5.50;4.10;;;16.30;99.90;;;;;;4416121;28;654595;-69
2023/09/02 05:43:05;;;;;;;4.80;3.60;;;16.40;99.90;;;;;;4392196;28;654603;-69
2023/09/02 05:45:52;;;;;;;6.47;4.27;;;16.50;99.90;;;;;;4403585;28;655327;-69
2023/09/02 05:48:40;;;;;;;6.57;3.97;;;16.60;99.90;;;;;;4405724;28;655535;-69
2023/09/02 05:51:29;;;;;;;6.47;4.13;;;16.60;99.90;;;;;;4408010;28;654601;-69
2023/09/02 05:54:16;;;;;;;5.80;3.63;;;16.70;99.90;;;;;;4415336;28;654721;-69
2023/09/02 05:57:05;;;;;;;6.27;3.87;;;16.70;99.90;;;;;;4399050;28;655064;-69
2023/09/02 05:59:52;;;;;;;4.20;3.43;;;16.70;99.90;;;;;;4410198;28;654281;-68
2023/09/02 06:02:40;;;;;;;5.33;3.57;;;16.70;99.90;;;;;;4408907;28;655626;-68
2023/09/02 06:05:29;;;;;;;5.77;3.50;;;16.60;99.90;;;;;;4416073;28;655944;-68
2023/09/02 06:08:17;;;;;;;5.37;3.27;;;16.70;99.90;;;;;;4417634;28;653997;-68
2023/09/02 06:11:05;;;;;;;6.10;3.40;;;16.80;99.90;;;;;;4396327;28;655784;-68
2023/09/02 06:13:54;;;;;;;5.07;3.50;;;16.90;99.90;;;;;;4410638;28;654627;-69
2023/09/02 06:16:41;;;;;;;6.87;3.50;;;16.80;99.90;;;;;;4412910;28;654533;-68
2023/09/02 06:19:28;;;;;;;5.15;3.58;;;16.90;99.90;;;;;;4395787;28;654247;-68
2023/09/02 06:22:15;;;;;;;4.60;3.30;;;17.00;99.90;;;;;;4433702;28;655939;-68
2023/09/02 06:25:03;;;;;;;4.47;3.27;;;17.10;99.90;;;;;;4399666;28;654432;-68
2023/09/02 06:27:50;;;;;;;4.18;2.72;;;17.20;99.90;;;;;;4423069;28;656195;-68
2023/09/02 06:30:39;;;;;;;4.53;3.20;;;17.20;99.90;;;;;;4390354;28;654551;-68
2023/09/02 06:33:26;;;;;;;6.87;3.80;;;17.20;99.90;;;;;;4412877;28;654853;-68
2023/09/02 06:36:14;;;;;;;7.13;4.07;;;17.40;99.90;;;;;;4397322;28;656316;-68
2023/09/02 06:39:02;;;;;;;7.17;3.77;;;17.60;99.90;;;;;;4403770;28;654671;-68
2023/09/02 06:41:49;;;;;;;6.60;4.10;;;17.70;99.90;;;;;;4395549;28;655147;-68
2023/09/02 06:44:37;;;;;;;10.37;5.43;;;17.60;99.90;;;;;;4418982;28;653912;-67
2023/09/02 06:47:25;;;;;;;7.60;4.57;;;17.50;99.90;;;;;;4386334;28;656166;-67
2023/09/02 06:50:12;;;;;;;6.73;4.53;;;17.50;99.90;;;;;;4394718;28;654921;-68
2023/09/02 06:53:00;;;;;;;6.03;4.73;;;17.60;99.90;;;;;;4423645;28;654760;-68
2023/09/02 06:55:47;;;;;;;6.60;5.10;;;17.60;99.90;;;;;;4414079;28;654803;-68
2023/09/02 06:58:35;;;;;;;6.57;4.63;;;17.60;99.90;;;;;;4407906;28;654496;-67
2023/09/02 07:01:22;;;;;;;7.00;5.27;;;17.60;99.90;;;;;;4420753;28;656967;-67
2023/09/02 07:04:11;;;;;;;6.93;5.20;;;17.60;99.90;;;;;;4397674;28;654883;-67
2023/09/02 07:06:58;;;;;;;8.00;5.43;;;17.70;99.90;;;;;;4393913;28;654435;-68
2023/09/02 07:09:47;;;;;;;7.37;5.30;;;17.60;99.90;;;;;;4415196;28;656273;-68
2023/09/02 07:12:34;;;;;;;8.00;5.47;;;17.60;99.90;;;;;;4397427;28;656958;-67
2023/09/02 07:15:21;;;;;;;6.37;5.40;;;17.60;99.90;;;;;;4413022;28;655914;-68
2023/09/02 07:18:08;;;;;;;6.80;5.60;;;17.60;99.90;;;;;;4398431;28;654782;-68
2023/09/02 07:21:00;;;;;;;7.22;5.65;;;17.60;99.90;;;;;;4415345;28;656279;-69
2023/09/02 07:23:47;;;;;;;7.37;5.63;;;17.30;99.90;;;;;;4387053;28;655946;-69
2023/09/02 07:26:35;;;;;;;10.90;6.10;;;17.40;99.90;;;;;;4424888;28;655779;-69
2023/09/02 07:29:22;;;;;;;8.47;6.40;;;17.60;99.90;;;;;;4425537;28;656080;-68
2023/09/02 07:32:09;;;;;;;9.60;6.57;;;17.70;99.90;;;;;;4396716;28;654991;-67
2023/09/02 07:34:56;;;;;;;9.37;7.00;;;17.40;99.90;;;;;;4417880;28;654577;-67
2023/09/02 07:37:45;;;;;;;11.00;7.17;;;17.20;99.90;;;;;;4385938;28;655401;-67
2023/09/02 07:40:32;;;;;;;11.10;7.00;;;17.10;99.90;;;;;;4404122;28;656914;-68
2023/09/02 07:43:20;;;;;;;12.10;7.17;;;17.20;99.90;;;;;;4414888;28;656827;-67
2023/09/02 07:46:07;;;;;;;10.27;7.20;;;17.40;99.90;;;;;;4413598;28;656501;-68
2023/09/02 07:48:55;;;;;;;9.63;7.20;;;17.50;99.90;;;;;;4414165;28;656598;-67
2023/09/02 07:51:44;;;;;;;19.50;7.10;;;17.50;99.90;;;;;;4405747;28;654781;-67
2023/09/02 07:54:32;;;;;;;11.27;6.73;;;17.60;99.90;;;;;;4422806;28;655948;-67
2023/09/02 07:57:20;;;;;;;10.80;6.93;;;17.80;99.90;;;;;;4399834;28;656372;-67
2023/09/02 08:00:08;;;;;;;14.10;6.93;;;18.00;99.90;;;;;;4414233;28;656144;-67
2023/09/02 08:02:55;;;;;;;17.00;8.33;;;17.90;99.90;;;;;;4383139;28;656355;-68
2023/09/02 08:05:42;;;;;;;17.47;9.10;;;17.80;99.90;;;;;;4386094;28;656071;-67
2023/09/02 08:08:30;;;;;;;18.65;7.85;;;17.70;99.90;;;;;;4408289;28;656532;-67
2023/09/02 08:11:19;;;;;;;13.50;7.63;;;17.90;99.90;;;;;;4390621;28;655467;-67
2023/09/02 08:14:06;;;;;;;17.30;8.00;;;18.10;99.90;;;;;;4413497;28;655366;-67
2023/09/02 08:16:53;;;;;;;12.00;7.70;;;18.40;99.90;;;;;;4388289;28;655011;-67
2023/09/02 08:19:41;;;;;;;17.07;8.07;;;18.40;99.90;;;;;;4407641;28;657154;-67
2023/09/02 08:22:28;;;;;;;13.07;7.23;;;18.50;99.90;;;;;;4385303;28;655373;-67
2023/09/02 08:25:15;;;;;;;11.80;6.57;;;18.50;99.90;;;;;;4406682;28;657398;-67
2023/09/02 08:28:04;;;;;;;12.73;6.47;;;18.50;99.90;;;;;;4399829;28;655437;-66
2023/09/02 08:30:52;;;;;;;11.63;5.97;;;18.50;99.90;;;;;;4418014;28;655124;-66
2023/09/02 08:33:39;;;;;;;10.60;5.80;;;18.50;99.90;;;;;;4398046;28;655657;-66
2023/09/02 08:36:26;;;;;;;10.77;5.80;;;18.70;99.90;;;;;;4389183;28;656133;-67
2023/09/02 08:39:13;;;;;;;11.30;6.30;;;18.90;99.90;;;;;;4338381;28;655835;-68
2023/09/02 08:42:01;;;;;;;11.47;5.83;;;19.00;99.90;;;;;;4316327;28;657410;-67
2023/09/02 08:44:49;;;;;;;11.60;6.47;;;19.00;99.90;;;;;;4291243;28;656207;-67
2023/09/02 08:47:39;;;;;;;9.90;5.70;;;19.30;99.90;;;;;;4316027;28;655514;-67
2023/09/02 08:50:26;;;;;;;12.37;6.83;;;19.40;99.90;;;;;;4328261;28;654829;-66
2023/09/02 08:53:14;;;;;;;11.57;6.77;;;19.60;99.90;;;;;;4373789;28;655999;-67
2023/09/02 08:56:01;;;;;;;16.80;8.27;;;19.80;99.90;;;;;;4396861;28;655502;-66
2023/09/02 08:58:48;;;;;;;12.93;8.40;;;20.10;99.90;;;;;;4323703;28;655266;-67
2023/09/02 09:01:42;;;;;;;15.40;8.30;;;20.20;99.90;;;;;;4403481;28;656080;-66
2023/09/02 09:04:32;;;;;;;12.80;7.20;;;20.70;99.90;;;;;;4388476;28;655769;-67
2023/09/02 09:07:19;;;;;;;16.40;9.00;;;20.70;99.90;;;;;;4371931;28;655929;-66
2023/09/02 09:10:08;;;;;;;12.37;7.53;;;21.00;99.90;;;;;;4408927;28;656398;-66
2023/09/02 09:12:56;;;;;;;10.50;6.70;;;21.20;99.90;;;;;;4387314;28;657841;-65
2023/09/02 09:15:43;;;;;;;9.07;5.73;;;21.40;99.90;;;;;;4377185;28;655608;-66
2023/09/02 09:18:32;;;;;;;7.67;4.47;;;21.10;99.90;;;;;;4407581;28;654785;-66
2023/09/02 09:21:19;;;;;;;9.40;5.20;;;21.50;99.90;;;;;;4391466;28;654537;-66
2023/09/02 09:24:10;;;;;;;9.33;4.83;;;21.30;99.90;;;;;;4411449;28;654145;-66
2023/09/02 09:26:59;;;;;;;6.53;3.50;;;21.70;99.90;;;;;;4371906;28;654417;-65
2023/09/02 09:29:46;;;;;;;4.50;3.10;;;21.60;99.90;;;;;;4411596;28;654909;-65
2023/09/02 09:32:33;;;;;;;5.20;2.90;;;21.70;99.90;;;;;;4388433;28;654299;-65
2023/09/02 09:35:23;;;;;;;3.77;2.37;;;21.50;99.90;;;;;;4411391;28;656029;-65
2023/09/02 09:38:10;;;;;;;3.23;2.17;;;21.60;99.90;;;;;;4388766;28;656076;-65
2023/09/02 09:40:58;;;;;;;3.57;1.80;;;21.70;99.90;;;;;;4393078;28;654426;-65
2023/09/02 09:43:45;;;;;;;3.20;1.43;;;21.50;99.90;;;;;;4403243;28;656267;-65
2023/09/02 09:46:34;;;;;;;2.50;1.50;;;21.60;99.90;;;;;;4400302;28;655443;-66
2023/09/02 09:49:25;;;;;;;1.90;1.40;;;21.30;99.90;;;;;;4406377;28;654261;-65
2023/09/02 09:52:14;;;;;;;2.73;1.40;;;21.10;99.90;;;;;;4410674;28;654711;-65
2023/09/02 09:55:01;;;;;;;3.37;1.50;;;21.00;99.90;;;;;;4415398;28;654148;-65
2023/09/02 09:57:48;;;;;;;4.30;1.40;;;20.90;99.90;;;;;;4387901;28;654644;-65
2023/09/02 10:00:36;;;;;;;2.10;1.20;;;20.60;99.90;;;;;;4409761;28;656736;-64
2023/09/02 10:03:30;;;;;;;2.23;1.20;;;20.40;99.90;;;;;;4384499;28;654458;-66
2023/09/02 10:06:18;;;;;;;1.10;1.00;;;19.90;99.90;;;;;;4411808;28;655487;-66
2023/09/02 10:09:07;;;;;;;1.40;1.10;;;19.90;99.90;;;;;;4411417;28;656503;-65
2023/09/02 10:11:55;;;;;;;1.70;1.40;;;20.00;99.90;;;;;;4386449;28;655844;-66
2023/09/02 10:14:42;;;;;;;3.40;1.40;;;19.90;99.90;;;;;;4399371;28;654738;-66
2023/09/02 10:17:30;;;;;;;1.77;1.30;;;20.10;99.90;;;;;;4405590;28;655478;-65
2023/09/02 10:20:18;;;;;;;2.07;1.70;;;20.80;99.90;;;;;;4386216;28;655979;-65
2023/09/02 10:23:06;;;;;;;5.17;1.97;;;21.20;99.90;;;;;;4415006;28;655424;-65
2023/09/02 10:25:57;;;;;;;6.03;2.37;;;21.80;99.90;;;;;;4392165;28;655225;-66
2023/09/02 10:28:44;;;;;;;3.40;2.00;;;22.10;99.90;;;;;;4370763;28;655324;-66
2023/09/02 10:31:33;;;;;;;3.47;1.80;;;21.70;99.90;;;;;;4391600;28;655651;-65
2023/09/02 10:34:26;;;;;;;2.88;2.08;;;21.20;99.90;;;;;;4367436;28;655606;-65
2023/09/02 10:37:14;;;;;;;7.10;2.60;;;20.60;99.90;;;;;;4366062;28;655090;-66
2023/09/02 10:40:05;;;;;;;3.57;2.07;;;20.60;99.90;;;;;;4412475;28;654168;-66
2023/09/02 10:42:54;;;;;;;2.70;2.50;;;20.70;99.90;;;;;;4388311;28;654399;-66
2023/09/02 10:45:41;;;;;;;2.90;2.40;;;20.70;99.90;;;;;;4408272;28;655537;-65
2023/09/02 10:48:28;;;;;;;3.20;2.60;;;21.20;99.90;;;;;;4388841;28;654158;-66
2023/09/02 10:51:16;;;;;;;2.70;2.50;;;21.00;99.90;;;;;;4392634;28;656038;-65
2023/09/02 10:54:04;;;;;;;3.57;2.80;;;21.20;99.90;;;;;;4381559;28;655015;-65
2023/09/02 10:56:52;;;;;;;4.57;2.87;;;21.40;99.90;;;;;;4410553;28;654757;-65
2023/09/02 10:59:40;;;;;;;5.70;3.40;;;21.80;99.90;;;;;;4391746;28;654269;-64
2023/09/02 11:02:39;;;;;;;6.10;3.17;;;22.30;99.90;;;;;;4394430;28;654453;-65
2023/09/02 11:05:27;;;;;;;3.83;3.10;;;22.50;99.90;;;;;;4377335;28;654422;-65
2023/09/02 11:08:49;;;;;;;8.07;3.90;;;22.00;99.90;;;;;;4397954;28;654379;-64
2023/09/02 11:12:11;;;;;;;4.33;3.70;;;22.30;99.90;;;;;;4386169;28;655428;-65
2023/09/02 11:15:16;;;;;;;5.87;3.30;;;21.60;99.90;;;;;;4367822;28;653881;-65
2023/09/02 11:18:29;;;;;;;4.87;3.90;;;21.60;99.90;;;;;;4374743;28;654639;-66
2023/09/02 11:21:36;;;;;;;4.90;4.17;;;21.90;99.90;;;;;;4375950;28;654863;-66
2023/09/02 11:24:23;;;;;;;6.53;4.43;;;21.60;99.90;;;;;;4355512;28;655337;-65
2023/09/02 11:27:10;;;;;;;5.80;4.70;;;21.70;99.90;;;;;;4396950;28;654949;-65
2023/09/02 11:30:09;;;;;;;4.77;3.80;;;21.90;99.90;;;;;;4368314;28;654746;-66
2023/09/02 11:32:58;;;;;;;5.13;4.10;;;21.80;99.90;;;;;;4373900;28;654421;-65
2023/09/02 11:35:45;;;;;;;5.80;3.90;;;21.50;99.90;;;;;;4378739;28;657171;-65
2023/09/02 11:38:33;;;;;;;11.10;5.40;;;21.70;99.90;;;;;;4408547;28;654717;-65
2023/09/02 11:41:21;;;;;;;6.27;3.60;;;21.90;99.90;;;;;;4415326;28;655865;-65
2023/09/02 11:44:10;;;;;;;4.47;4.00;;;21.80;99.90;;;;;;4392669;28;655346;-65
2023/09/02 11:46:57;;;;;;;4.30;3.83;;;22.30;99.90;;;;;;4391471;28;654512;-65
2023/09/02 11:49:46;;;;;;;6.23;3.90;;;22.80;99.90;;;;;;4412753;28;654803;-65
2023/09/02 11:52:33;;;;;;;8.45;4.15;;;23.40;99.90;;;;;;4376581;28;655329;-64
2023/09/02 11:55:21;;;;;;;6.25;3.05;;;23.70;99.90;;;;;;4383675;28;655327;-66
2023/09/02 11:58:14;;;;;;;5.75;2.90;;;23.30;99.90;;;;;;4372408;28;654344;-65
2023/09/02 12:01:02;;;;;;;5.97;3.13;;;23.00;99.90;;;;;;4387017;28;655150;-66
2023/09/02 12:03:49;;;;;;;5.22;3.63;;;23.30;99.90;;;;;;4393874;28;655470;-65
2023/09/02 12:06:37;;;;;;;3.35;2.80;;;22.70;99.90;;;;;;4402395;28;654862;-66
2023/09/02 12:09:25;;;;;;;3.92;3.30;;;23.30;99.90;;;;;;4389812;28;655117;-66
2023/09/02 12:12:15;;;;;;;3.75;2.90;;;23.30;99.90;;;;;;4408638;28;654706;-66
2023/09/02 12:15:03;;;;;;;5.30;3.20;;;23.80;99.90;;;;;;4407337;28;654435;-66
2023/09/02 12:17:50;;;;;;;3.13;2.83;;;23.90;99.90;;;;;;4382129;28;655903;-66
2023/09/02 12:20:38;;;;;;;4.75;2.50;;;23.90;99.90;;;;;;4408025;28;654367;-66
2023/09/02 12:23:26;;;;;;;2.88;2.53;;;23.90;99.90;;;;;;4414596;28;655612;-67
2023/09/02 12:26:13;;;;;;;2.45;2.05;;;24.30;99.90;;;;;;4396610;28;655266;-65
2023/09/02 12:29:01;;;;;;;2.78;2.20;;;24.30;99.90;;;;;;4411266;28;655492;-65
2023/09/02 12:31:52;;;;;;;2.30;2.10;;;24.70;99.90;;;;;;4396082;28;654930;-66
2023/09/02 12:34:40;;;;;;;2.40;2.20;;;25.20;99.90;;;;;;4393903;28;654800;-65
2023/09/02 12:37:27;;;;;;;5.28;2.28;;;24.70;99.90;;;;;;4403004;28;654853;-65
2023/09/02 12:40:16;;;;;;;2.47;2.08;;;24.60;99.90;;;;;;4413810;28;655959;-65
2023/09/02 12:43:04;;;;;;;2.30;2.08;;;24.60;99.90;;;;;;4395002;28;655151;-65
2023/09/02 12:45:52;;;;;;;2.20;2.00;;;23.60;99.90;;;;;;4394854;28;655026;-65
2023/09/02 12:48:40;;;;;;;1.90;1.70;;;23.80;99.90;;;;;;4386336;28;656154;-65
2023/09/02 12:51:30;;;;;;;2.40;1.73;;;23.70;99.90;;;;;;4414740;28;655194;-65
2023/09/02 12:54:17;;;;;;;2.10;1.60;;;23.70;99.90;;;;;;4376656;28;654532;-65
2023/09/02 12:57:06;;;;;;;1.92;1.83;;;24.20;99.90;;;;;;4410754;28;655873;-65
2023/09/02 12:59:53;;;;;;;4.65;1.85;;;24.30;99.90;;;;;;4387968;28;654814;-66
2023/09/02 13:02:40;;;;;;;3.72;1.90;;;24.60;99.90;;;;;;4413878;28;655656;-66
2023/09/02 13:05:28;;;;;;;1.85;1.75;;;24.70;99.90;;;;;;4395265;28;654473;-65
2023/09/02 13:08:15;;;;;;;3.28;1.90;;;24.30;99.90;;;;;;4410519;28;656127;-64
2023/09/02 13:11:04;;;;;;;2.00;1.70;;;23.60;99.90;;;;;;4397824;28;654791;-64
2023/09/02 13:13:53;;;;;;;1.88;1.60;;;23.80;99.90;;;;;;4410493;28;654392;-64
2023/09/02 13:16:40;;;;;;;1.95;1.80;;;23.20;99.90;;;;;;4386192;28;656108;-65
2023/09/02 13:19:29;;;;;;;1.73;1.63;;;23.40;99.90;;;;;;4404136;28;655091;-66
2023/09/02 13:22:16;;;;;;;2.22;1.65;;;23.30;99.90;;;;;;4407395;28;653682;-65
2023/09/02 13:25:04;;;;;;;1.88;1.50;;;23.50;99.90;;;;;;4394127;28;654866;-65
2023/09/02 13:27:51;;;;;;;1.70;1.60;;;23.90;99.90;;;;;;4411324;28;654268;-65
2023/09/02 13:30:39;;;;;;;1.67;1.30;;;24.30;99.90;;;;;;4392490;28;654604;-66
2023/09/02 13:33:27;;;;;;;2.72;1.60;;;24.50;99.90;;;;;;4408634;28;654623;-65
2023/09/02 13:36:14;;;;;;;2.00;1.20;;;24.30;99.90;;;;;;4394002;28;654702;-65
2023/09/02 13:39:01;;;;;;;1.40;1.30;;;24.50;99.90;;;;;;4417801;28;654572;-65
2023/09/02 13:41:48;;;;;;;2.10;1.60;;;23.80;99.90;;;;;;4398387;28;654962;-65
2023/09/02 13:44:36;;;;;;;4.60;1.73;;;23.70;99.90;;;;;;4414088;28;655559;-65
2023/09/02 13:47:24;;;;;;;1.42;1.25;;;24.00;99.90;;;;;;4387712;28;654399;-65
2023/09/02 13:50:11;;;;;;;1.58;1.23;;;24.50;99.90;;;;;;4406568;28;653643;-65
2023/09/02 13:52:59;;;;;;;1.38;1.23;;;24.60;99.90;;;;;;4389687;28;654279;-65
2023/09/02 13:55:47;;;;;;;1.17;1.08;;;24.60;99.90;;;;;;4408100;28;656084;-65
2023/09/02 13:58:34;;;;;;;1.20;1.10;;;24.90;99.90;;;;;;4387989;28;654841;-65
2023/09/02 14:01:21;;;;;;;1.05;0.95;;;24.60;99.90;;;;;;4413748;28;655459;-64
2023/09/02 14:04:10;;;;;;;1.33;1.23;;;23.80;99.90;;;;;;4400235;28;655449;-65
2023/09/02 14:06:59;;;;;;;1.27;1.17;;;23.40;99.90;;;;;;4395788;28;654412;-65
2023/09/02 14:09:46;;;;;;;1.95;1.25;;;23.90;99.90;;;;;;4413639;28;654456;-65
2023/09/02 14:12:34;;;;;;;1.70;1.50;;;24.00;99.90;;;;;;4389758;28;654535;-65
2023/09/02 14:15:21;;;;;;;1.08;1.00;;;24.50;99.90;;;;;;4414977;28;654623;-64
2023/09/02 14:18:09;;;;;;;1.63;1.30;;;24.40;99.90;;;;;;4387636;28;654545;-65
2023/09/02 14:20:57;;;;;;;1.83;1.42;;;24.90;99.90;;;;;;4405312;28;655455;-65